sensor_id;sensor_type;location;lat;lon;timestamp;P1;durP1;ratioP1;P2;durP2;ratioP2
13026;SDS011;6580;42.680;23.324;2022-07-06T00:00:29;13.85;;;12.65;;
13026;SDS011;6580;42.680;23.324;2022-07-06T00:02:55;12.82;;;11.73;;
13026;SDS011;6580;42.680;23.324;2022-07-06T00:05:24;13.95;;;12.82;;
13026;SDS011;6580;42.680;23.324;2022-07-06T00:07:51;13.98;;;12.73;;
13026;SDS011;6580;42.680;23.324;2022-07-06T00:10:19;12.50;;;11.50;;
13026;SDS011;6580;42.680;23.324;2022-07-06T00:12:46;13.23;;;12.13;;
13026;SDS011;6580;42.680;23.324;2022-07-06T00:15:14;13.70;;;12.43;;
13026;SDS011;6580;42.680;23.324;2022-07-06T00:17:43;13.70;;;12.50;;
13026;SDS011;6580;42.680;23.324;2022-07-06T00:20:10;14.65;;;13.25;;
13026;SDS011;6580;42.680;23.324;2022-07-06T00:22:38;15.00;;;13.68;;
13026;SDS011;6580;42.680;23.324;2022-07-06T00:25:06;14.40;;;13.05;;
13026;SDS011;6580;42.680;23.324;2022-07-06T00:27:34;13.88;;;12.50;;
13026;SDS011;6580;42.680;23.324;2022-07-06T00:30:02;15.80;;;14.40;;
13026;SDS011;6580;42.680;23.324;2022-07-06T00:32:29;15.43;;;13.82;;
13026;SDS011;6580;42.680;23.324;2022-07-06T00:34:57;14.43;;;12.93;;
13026;SDS011;6580;42.680;23.324;2022-07-06T00:37:24;14.13;;;12.73;;
13026;SDS011;6580;42.680;23.324;2022-07-06T00:39:51;13.80;;;12.60;;
13026;SDS011;6580;42.680;23.324;2022-07-06T00:42:18;13.02;;;11.82;;
13026;SDS011;6580;42.680;23.324;2022-07-06T00:44:46;14.95;;;13.48;;
13026;SDS011;6580;42.680;23.324;2022-07-06T00:47:14;14.73;;;13.32;;
13026;SDS011;6580;42.680;23.324;2022-07-06T00:49:42;15.85;;;14.25;;
13026;SDS011;6580;42.680;23.324;2022-07-06T00:52:27;14.88;;;13.57;;
13026;SDS011;6580;42.680;23.324;2022-07-06T00:55:04;19.35;;;16.60;;
13026;SDS011;6580;42.680;23.324;2022-07-06T00:57:31;21.08;;;18.90;;
13026;SDS011;6580;42.680;23.324;2022-07-06T00:59:58;22.50;;;20.60;;
13026;SDS011;6580;42.680;23.324;2022-07-06T01:02:25;22.20;;;20.17;;
13026;SDS011;6580;42.680;23.324;2022-07-06T01:04:52;22.02;;;20.02;;
13026;SDS011;6580;42.680;23.324;2022-07-06T01:07:19;21.73;;;19.58;;
13026;SDS011;6580;42.680;23.324;2022-07-06T01:09:49;21.55;;;19.63;;
13026;SDS011;6580;42.680;23.324;2022-07-06T01:12:16;21.48;;;19.58;;
13026;SDS011;6580;42.680;23.324;2022-07-06T01:14:43;22.73;;;20.63;;
13026;SDS011;6580;42.680;23.324;2022-07-06T01:17:11;22.50;;;20.50;;
13026;SDS011;6580;42.680;23.324;2022-07-06T01:19:40;24.30;;;21.92;;
13026;SDS011;6580;42.680;23.324;2022-07-06T01:22:08;22.63;;;20.52;;
13026;SDS011;6580;42.680;23.324;2022-07-06T01:24:38;23.95;;;21.75;;
13026;SDS011;6580;42.680;23.324;2022-07-06T01:27:04;21.38;;;19.48;;
13026;SDS011;6580;42.680;23.324;2022-07-06T01:29:33;21.25;;;19.35;;
13026;SDS011;6580;42.680;23.324;2022-07-06T01:32:01;19.80;;;17.90;;
13026;SDS011;6580;42.680;23.324;2022-07-06T01:34:35;18.50;;;16.92;;
13026;SDS011;6580;42.680;23.324;2022-07-06T01:37:01;18.17;;;16.58;;
13026;SDS011;6580;42.680;23.324;2022-07-06T01:39:30;16.52;;;15.02;;
13026;SDS011;6580;42.680;23.324;2022-07-06T01:41:57;15.77;;;14.27;;
13026;SDS011;6580;42.680;23.324;2022-07-06T01:44:27;16.88;;;15.27;;
13026;SDS011;6580;42.680;23.324;2022-07-06T01:46:55;16.73;;;15.23;;
13026;SDS011;6580;42.680;23.324;2022-07-06T01:49:23;21.05;;;19.10;;
13026;SDS011;6580;42.680;23.324;2022-07-06T01:51:50;24.42;;;22.23;;
13026;SDS011;6580;42.680;23.324;2022-07-06T01:54:17;24.35;;;22.13;;
13026;SDS011;6580;42.680;23.324;2022-07-06T01:56:45;17.80;;;16.20;;
13026;SDS011;6580;42.680;23.324;2022-07-06T01:59:12;20.20;;;18.20;;
13026;SDS011;6580;42.680;23.324;2022-07-06T02:01:39;20.23;;;18.42;;
13026;SDS011;6580;42.680;23.324;2022-07-06T02:04:06;12.90;;;11.77;;
13026;SDS011;6580;42.680;23.324;2022-07-06T02:06:34;13.32;;;12.23;;
13026;SDS011;6580;42.680;23.324;2022-07-06T02:09:01;12.25;;;11.05;;
13026;SDS011;6580;42.680;23.324;2022-07-06T02:11:28;11.55;;;10.50;;
13026;SDS011;6580;42.680;23.324;2022-07-06T02:13:57;11.27;;;10.38;;
13026;SDS011;6580;42.680;23.324;2022-07-06T02:16:24;11.10;;;10.23;;
13026;SDS011;6580;42.680;23.324;2022-07-06T02:18:51;11.85;;;10.65;;
13026;SDS011;6580;42.680;23.324;2022-07-06T02:21:18;10.77;;;9.68;;
13026;SDS011;6580;42.680;23.324;2022-07-06T02:23:45;11.80;;;10.63;;
13026;SDS011;6580;42.680;23.324;2022-07-06T02:26:12;11.07;;;10.10;;
13026;SDS011;6580;42.680;23.324;2022-07-06T02:28:40;11.15;;;10.05;;
13026;SDS011;6580;42.680;23.324;2022-07-06T02:31:08;11.90;;;10.90;;
13026;SDS011;6580;42.680;23.324;2022-07-06T02:33:39;12.60;;;11.40;;
13026;SDS011;6580;42.680;23.324;2022-07-06T02:36:06;12.20;;;11.20;;
13026;SDS011;6580;42.680;23.324;2022-07-06T02:38:33;12.15;;;11.15;;
13026;SDS011;6580;42.680;23.324;2022-07-06T02:41:00;10.65;;;9.55;;
13026;SDS011;6580;42.680;23.324;2022-07-06T02:43:27;11.85;;;10.75;;
13026;SDS011;6580;42.680;23.324;2022-07-06T02:45:54;11.48;;;10.48;;
13026;SDS011;6580;42.680;23.324;2022-07-06T02:48:24;11.30;;;10.38;;
13026;SDS011;6580;42.680;23.324;2022-07-06T02:50:51;11.25;;;10.35;;
13026;SDS011;6580;42.680;23.324;2022-07-06T02:53:18;12.27;;;11.18;;
13026;SDS011;6580;42.680;23.324;2022-07-06T02:55:45;12.75;;;11.50;;
13026;SDS011;6580;42.680;23.324;2022-07-06T02:58:11;13.32;;;12.07;;
13026;SDS011;6580;42.680;23.324;2022-07-06T03:00:38;13.00;;;11.80;;
13026;SDS011;6580;42.680;23.324;2022-07-06T03:03:05;12.07;;;10.98;;
13026;SDS011;6580;42.680;23.324;2022-07-06T03:05:33;12.90;;;11.80;;
13026;SDS011;6580;42.680;23.324;2022-07-06T03:08:00;13.05;;;11.95;;
13026;SDS011;6580;42.680;23.324;2022-07-06T03:10:27;13.43;;;12.13;;
13026;SDS011;6580;42.680;23.324;2022-07-06T03:12:54;13.07;;;11.88;;
13026;SDS011;6580;42.680;23.324;2022-07-06T03:15:21;12.93;;;11.73;;
13026;SDS011;6580;42.680;23.324;2022-07-06T03:17:48;13.48;;;12.15;;
13026;SDS011;6580;42.680;23.324;2022-07-06T03:20:14;13.65;;;12.43;;
13026;SDS011;6580;42.680;23.324;2022-07-06T03:22:44;13.40;;;12.15;;
13026;SDS011;6580;42.680;23.324;2022-07-06T03:25:12;14.05;;;12.73;;
13026;SDS011;6580;42.680;23.324;2022-07-06T03:27:39;13.55;;;12.38;;
13026;SDS011;6580;42.680;23.324;2022-07-06T03:30:07;13.55;;;12.45;;
13026;SDS011;6580;42.680;23.324;2022-07-06T03:32:35;13.25;;;12.13;;
13026;SDS011;6580;42.680;23.324;2022-07-06T03:35:02;12.50;;;11.30;;
13026;SDS011;6580;42.680;23.324;2022-07-06T03:37:29;13.38;;;11.77;;
13026;SDS011;6580;42.680;23.324;2022-07-06T03:39:57;11.80;;;10.77;;
13026;SDS011;6580;42.680;23.324;2022-07-06T03:42:25;11.32;;;10.23;;
13026;SDS011;6580;42.680;23.324;2022-07-06T03:44:52;11.75;;;10.73;;
13026;SDS011;6580;42.680;23.324;2022-07-06T03:47:19;10.57;;;9.57;;
13026;SDS011;6580;42.680;23.324;2022-07-06T03:49:46;11.05;;;10.00;;
13026;SDS011;6580;42.680;23.324;2022-07-06T03:52:13;9.95;;;8.93;;
13026;SDS011;6580;42.680;23.324;2022-07-06T03:54:40;11.02;;;9.27;;
13026;SDS011;6580;42.680;23.324;2022-07-06T03:57:08;9.95;;;9.15;;
13026;SDS011;6580;42.680;23.324;2022-07-06T03:59:36;9.20;;;8.50;;
13026;SDS011;6580;42.680;23.324;2022-07-06T04:02:03;9.68;;;7.75;;
13026;SDS011;6580;42.680;23.324;2022-07-06T04:04:30;9.55;;;8.27;;
13026;SDS011;6580;42.680;23.324;2022-07-06T04:06:58;8.30;;;7.50;;
13026;SDS011;6580;42.680;23.324;2022-07-06T04:09:25;8.35;;;7.60;;
13026;SDS011;6580;42.680;23.324;2022-07-06T04:11:51;8.00;;;7.28;;
13026;SDS011;6580;42.680;23.324;2022-07-06T04:14:21;8.98;;;8.15;;
13026;SDS011;6580;42.680;23.324;2022-07-06T04:16:48;8.23;;;7.53;;
13026;SDS011;6580;42.680;23.324;2022-07-06T04:19:15;8.00;;;7.20;;
13026;SDS011;6580;42.680;23.324;2022-07-06T04:21:42;8.68;;;7.82;;
13026;SDS011;6580;42.680;23.324;2022-07-06T04:24:08;9.90;;;8.90;;
13026;SDS011;6580;42.680;23.324;2022-07-06T04:26:35;8.63;;;7.82;;
13026;SDS011;6580;42.680;23.324;2022-07-06T04:29:02;9.02;;;7.05;;
13026;SDS011;6580;42.680;23.324;2022-07-06T04:31:30;10.38;;;8.20;;
13026;SDS011;6580;42.680;23.324;2022-07-06T04:33:58;8.25;;;7.43;;
13026;SDS011;6580;42.680;23.324;2022-07-06T04:36:31;8.40;;;7.43;;
13026;SDS011;6580;42.680;23.324;2022-07-06T04:38:58;8.00;;;7.18;;
13026;SDS011;6580;42.680;23.324;2022-07-06T04:41:25;7.88;;;7.18;;
13026;SDS011;6580;42.680;23.324;2022-07-06T04:43:52;8.55;;;7.75;;
13026;SDS011;6580;42.680;23.324;2022-07-06T04:46:18;8.65;;;7.88;;
13026;SDS011;6580;42.680;23.324;2022-07-06T04:48:47;9.30;;;8.18;;
13026;SDS011;6580;42.680;23.324;2022-07-06T04:51:14;11.82;;;8.30;;
13026;SDS011;6580;42.680;23.324;2022-07-06T04:53:41;9.70;;;8.80;;
13026;SDS011;6580;42.680;23.324;2022-07-06T04:56:08;10.23;;;9.23;;
13026;SDS011;6580;42.680;23.324;2022-07-06T04:58:37;10.38;;;9.38;;
13026;SDS011;6580;42.680;23.324;2022-07-06T05:01:03;10.18;;;9.10;;
13026;SDS011;6580;42.680;23.324;2022-07-06T05:03:30;11.70;;;10.18;;
13026;SDS011;6580;42.680;23.324;2022-07-06T05:05:59;12.45;;;9.98;;
13026;SDS011;6580;42.680;23.324;2022-07-06T05:08:26;12.27;;;11.13;;
13026;SDS011;6580;42.680;23.324;2022-07-06T05:10:53;13.18;;;11.85;;
13026;SDS011;6580;42.680;23.324;2022-07-06T05:13:20;13.30;;;12.10;;
13026;SDS011;6580;42.680;23.324;2022-07-06T05:15:47;12.98;;;11.77;;
13026;SDS011;6580;42.680;23.324;2022-07-06T05:18:14;13.30;;;11.95;;
13026;SDS011;6580;42.680;23.324;2022-07-06T05:20:41;13.90;;;12.52;;
13026;SDS011;6580;42.680;23.324;2022-07-06T05:23:10;13.80;;;12.50;;
13026;SDS011;6580;42.680;23.324;2022-07-06T05:25:37;13.60;;;11.10;;
13026;SDS011;6580;42.680;23.324;2022-07-06T05:28:04;12.52;;;11.38;;
13026;SDS011;6580;42.680;23.324;2022-07-06T05:30:31;12.90;;;11.05;;
13026;SDS011;6580;42.680;23.324;2022-07-06T05:32:58;11.88;;;10.73;;
13026;SDS011;6580;42.680;23.324;2022-07-06T05:35:24;12.35;;;11.05;;
13026;SDS011;6580;42.680;23.324;2022-07-06T05:37:51;11.65;;;10.55;;
13026;SDS011;6580;42.680;23.324;2022-07-06T05:40:19;13.40;;;10.77;;
13026;SDS011;6580;42.680;23.324;2022-07-06T05:42:46;11.73;;;10.40;;
13026;SDS011;6580;42.680;23.324;2022-07-06T05:45:13;10.27;;;9.35;;
13026;SDS011;6580;42.680;23.324;2022-07-06T05:47:40;11.10;;;10.10;;
13026;SDS011;6580;42.680;23.324;2022-07-06T05:50:26;10.05;;;9.15;;
13026;SDS011;6580;42.680;23.324;2022-07-06T05:52:57;10.80;;;9.70;;
13026;SDS011;6580;42.680;23.324;2022-07-06T05:55:27;10.93;;;9.65;;
13026;SDS011;6580;42.680;23.324;2022-07-06T05:57:54;10.95;;;9.45;;
13026;SDS011;6580;42.680;23.324;2022-07-06T06:00:25;9.75;;;8.80;;
13026;SDS011;6580;42.680;23.324;2022-07-06T06:02:53;10.73;;;9.80;;
13026;SDS011;6580;42.680;23.324;2022-07-06T06:05:20;11.20;;;10.07;;
13026;SDS011;6580;42.680;23.324;2022-07-06T06:07:47;10.95;;;9.85;;
13026;SDS011;6580;42.680;23.324;2022-07-06T06:10:16;10.82;;;9.73;;
13026;SDS011;6580;42.680;23.324;2022-07-06T06:12:45;10.38;;;9.48;;
13026;SDS011;6580;42.680;23.324;2022-07-06T06:15:12;11.00;;;9.88;;
13026;SDS011;6580;42.680;23.324;2022-07-06T06:17:39;10.35;;;9.40;;
13026;SDS011;6580;42.680;23.324;2022-07-06T06:20:10;11.77;;;10.40;;
13026;SDS011;6580;42.680;23.324;2022-07-06T06:22:50;11.80;;;10.60;;
13026;SDS011;6580;42.680;23.324;2022-07-06T06:25:27;11.68;;;10.63;;
13026;SDS011;6580;42.680;23.324;2022-07-06T06:28:00;10.50;;;9.60;;
13026;SDS011;6580;42.680;23.324;2022-07-06T06:30:28;11.32;;;10.32;;
13026;SDS011;6580;42.680;23.324;2022-07-06T06:33:05;11.05;;;9.88;;
13026;SDS011;6580;42.680;23.324;2022-07-06T06:35:33;12.27;;;9.73;;
13026;SDS011;6580;42.680;23.324;2022-07-06T06:38:00;11.70;;;10.70;;
13026;SDS011;6580;42.680;23.324;2022-07-06T06:40:27;11.02;;;9.93;;
13026;SDS011;6580;42.680;23.324;2022-07-06T06:42:54;11.98;;;10.77;;
13026;SDS011;6580;42.680;23.324;2022-07-06T06:45:22;11.75;;;10.60;;
13026;SDS011;6580;42.680;23.324;2022-07-06T06:47:49;12.15;;;10.75;;
13026;SDS011;6580;42.680;23.324;2022-07-06T06:50:16;11.23;;;10.13;;
13026;SDS011;6580;42.680;23.324;2022-07-06T06:52:43;11.48;;;10.48;;
13026;SDS011;6580;42.680;23.324;2022-07-06T06:55:09;11.30;;;10.20;;
13026;SDS011;6580;42.680;23.324;2022-07-06T06:57:36;10.85;;;9.85;;
13026;SDS011;6580;42.680;23.324;2022-07-06T07:00:03;11.80;;;10.65;;
13026;SDS011;6580;42.680;23.324;2022-07-06T07:02:32;11.60;;;10.57;;
13026;SDS011;6580;42.680;23.324;2022-07-06T07:04:59;11.73;;;10.60;;
13026;SDS011;6580;42.680;23.324;2022-07-06T07:07:26;11.30;;;10.30;;
13026;SDS011;6580;42.680;23.324;2022-07-06T07:09:53;11.40;;;10.40;;
13026;SDS011;6580;42.680;23.324;2022-07-06T07:12:20;11.88;;;10.73;;
13026;SDS011;6580;42.680;23.324;2022-07-06T07:14:46;11.18;;;10.18;;
13026;SDS011;6580;42.680;23.324;2022-07-06T07:17:13;13.02;;;11.52;;
13026;SDS011;6580;42.680;23.324;2022-07-06T07:19:42;11.88;;;10.77;;
13026;SDS011;6580;42.680;23.324;2022-07-06T07:22:09;12.15;;;11.05;;
13026;SDS011;6580;42.680;23.324;2022-07-06T07:24:35;14.02;;;12.73;;
13026;SDS011;6580;42.680;23.324;2022-07-06T07:27:02;13.68;;;11.75;;
13026;SDS011;6580;42.680;23.324;2022-07-06T07:29:30;12.27;;;11.15;;
13026;SDS011;6580;42.680;23.324;2022-07-06T07:31:57;12.23;;;11.18;;
13026;SDS011;6580;42.680;23.324;2022-07-06T07:34:23;12.55;;;11.35;;
13026;SDS011;6580;42.680;23.324;2022-07-06T07:36:52;12.45;;;11.35;;
13026;SDS011;6580;42.680;23.324;2022-07-06T07:39:19;12.73;;;11.48;;
13026;SDS011;6580;42.680;23.324;2022-07-06T07:41:46;12.02;;;10.90;;
13026;SDS011;6580;42.680;23.324;2022-07-06T07:44:15;13.35;;;11.88;;
13026;SDS011;6580;42.680;23.324;2022-07-06T07:46:42;13.07;;;11.77;;
13026;SDS011;6580;42.680;23.324;2022-07-06T07:49:09;13.30;;;12.18;;
13026;SDS011;6580;42.680;23.324;2022-07-06T07:51:36;13.15;;;11.95;;
13026;SDS011;6580;42.680;23.324;2022-07-06T07:54:05;13.02;;;11.07;;
13026;SDS011;6580;42.680;23.324;2022-07-06T07:56:32;11.57;;;10.57;;
13026;SDS011;6580;42.680;23.324;2022-07-06T07:59:00;10.27;;;9.32;;
13026;SDS011;6580;42.680;23.324;2022-07-06T08:01:27;11.30;;;10.23;;
13026;SDS011;6580;42.680;23.324;2022-07-06T08:03:54;11.63;;;10.73;;
13026;SDS011;6580;42.680;23.324;2022-07-06T08:06:21;11.02;;;9.90;;
13026;SDS011;6580;42.680;23.324;2022-07-06T08:08:48;10.43;;;9.48;;
13026;SDS011;6580;42.680;23.324;2022-07-06T08:11:16;11.00;;;9.93;;
13026;SDS011;6580;42.680;23.324;2022-07-06T08:13:43;11.18;;;10.05;;
13026;SDS011;6580;42.680;23.324;2022-07-06T08:16:10;12.02;;;10.93;;
13026;SDS011;6580;42.680;23.324;2022-07-06T08:18:37;10.65;;;9.85;;
13026;SDS011;6580;42.680;23.324;2022-07-06T08:21:04;10.45;;;9.18;;
13026;SDS011;6580;42.680;23.324;2022-07-06T08:23:31;9.48;;;8.68;;
13026;SDS011;6580;42.680;23.324;2022-07-06T08:25:59;10.35;;;9.45;;
13026;SDS011;6580;42.680;23.324;2022-07-06T08:28:28;10.10;;;9.20;;
13026;SDS011;6580;42.680;23.324;2022-07-06T08:30:54;9.77;;;8.93;;
13026;SDS011;6580;42.680;23.324;2022-07-06T08:33:21;9.27;;;8.57;;
13026;SDS011;6580;42.680;23.324;2022-07-06T08:35:48;10.07;;;9.27;;
13026;SDS011;6580;42.680;23.324;2022-07-06T08:38:18;9.73;;;8.93;;
13026;SDS011;6580;42.680;23.324;2022-07-06T08:40:46;11.07;;;9.93;;
13026;SDS011;6580;42.680;23.324;2022-07-06T08:43:16;11.45;;;10.02;;
13026;SDS011;6580;42.680;23.324;2022-07-06T08:45:46;11.43;;;10.18;;
13026;SDS011;6580;42.680;23.324;2022-07-06T08:48:16;9.80;;;9.05;;
13026;SDS011;6580;42.680;23.324;2022-07-06T08:50:44;10.10;;;9.27;;
13026;SDS011;6580;42.680;23.324;2022-07-06T08:53:11;10.05;;;9.15;;
13026;SDS011;6580;42.680;23.324;2022-07-06T08:55:38;10.82;;;9.93;;
13026;SDS011;6580;42.680;23.324;2022-07-06T08:58:05;11.63;;;10.50;;
13026;SDS011;6580;42.680;23.324;2022-07-06T09:00:34;11.77;;;10.75;;
13026;SDS011;6580;42.680;23.324;2022-07-06T09:03:03;11.85;;;10.80;;
13026;SDS011;6580;42.680;23.324;2022-07-06T09:05:31;12.20;;;11.10;;
13026;SDS011;6580;42.680;23.324;2022-07-06T09:08:02;12.60;;;11.32;;
13026;SDS011;6580;42.680;23.324;2022-07-06T09:10:30;11.68;;;10.52;;
13026;SDS011;6580;42.680;23.324;2022-07-06T09:13:03;10.50;;;9.60;;
13026;SDS011;6580;42.680;23.324;2022-07-06T09:15:32;11.20;;;10.10;;
13026;SDS011;6580;42.680;23.324;2022-07-06T09:18:01;12.07;;;10.98;;
13026;SDS011;6580;42.680;23.324;2022-07-06T09:20:32;13.65;;;12.40;;
13026;SDS011;6580;42.680;23.324;2022-07-06T09:23:00;10.93;;;10.02;;
13026;SDS011;6580;42.680;23.324;2022-07-06T09:25:27;11.43;;;10.43;;
13026;SDS011;6580;42.680;23.324;2022-07-06T09:27:56;12.25;;;11.15;;
13026;SDS011;6580;42.680;23.324;2022-07-06T09:30:25;10.63;;;9.60;;
13026;SDS011;6580;42.680;23.324;2022-07-06T09:32:53;12.48;;;11.45;;
13026;SDS011;6580;42.680;23.324;2022-07-06T09:35:24;11.43;;;10.50;;
13026;SDS011;6580;42.680;23.324;2022-07-06T09:38:02;11.07;;;10.18;;
13026;SDS011;6580;42.680;23.324;2022-07-06T09:40:31;12.27;;;11.35;;
13026;SDS011;6580;42.680;23.324;2022-07-06T09:43:13;13.25;;;12.15;;
13026;SDS011;6580;42.680;23.324;2022-07-06T09:45:41;13.50;;;12.20;;
13026;SDS011;6580;42.680;23.324;2022-07-06T09:48:11;14.30;;;12.95;;
13026;SDS011;6580;42.680;23.324;2022-07-06T09:50:42;14.00;;;12.88;;
13026;SDS011;6580;42.680;23.324;2022-07-06T09:53:10;14.80;;;13.57;;
13026;SDS011;6580;42.680;23.324;2022-07-06T09:55:37;14.52;;;13.25;;
13026;SDS011;6580;42.680;23.324;2022-07-06T09:58:16;14.60;;;13.40;;
13026;SDS011;6580;42.680;23.324;2022-07-06T10:00:44;14.55;;;13.13;;
13026;SDS011;6580;42.680;23.324;2022-07-06T10:03:13;13.70;;;12.50;;
13026;SDS011;6580;42.680;23.324;2022-07-06T10:05:42;13.60;;;12.30;;
13026;SDS011;6580;42.680;23.324;2022-07-06T10:08:11;13.25;;;12.15;;
13026;SDS011;6580;42.680;23.324;2022-07-06T10:10:40;13.80;;;12.70;;
13026;SDS011;6580;42.680;23.324;2022-07-06T10:13:07;13.50;;;12.40;;
13026;SDS011;6580;42.680;23.324;2022-07-06T10:15:39;13.20;;;12.05;;
13026;SDS011;6580;42.680;23.324;2022-07-06T10:18:07;13.70;;;12.60;;
13026;SDS011;6580;42.680;23.324;2022-07-06T10:20:36;12.93;;;11.90;;
13026;SDS011;6580;42.680;23.324;2022-07-06T10:23:07;12.70;;;11.70;;
13026;SDS011;6580;42.680;23.324;2022-07-06T10:25:34;12.63;;;11.73;;
13026;SDS011;6580;42.680;23.324;2022-07-06T10:28:02;12.95;;;11.95;;
13026;SDS011;6580;42.680;23.324;2022-07-06T10:30:36;13.50;;;12.40;;
13026;SDS011;6580;42.680;23.324;2022-07-06T10:33:03;13.75;;;12.57;;
13026;SDS011;6580;42.680;23.324;2022-07-06T10:35:30;13.15;;;12.05;;
13026;SDS011;6580;42.680;23.324;2022-07-06T10:38:06;12.80;;;11.80;;
13026;SDS011;6580;42.680;23.324;2022-07-06T10:40:35;12.88;;;11.77;;
13026;SDS011;6580;42.680;23.324;2022-07-06T10:43:22;12.75;;;11.65;;
13026;SDS011;6580;42.680;23.324;2022-07-06T10:45:50;13.27;;;12.23;;
13026;SDS011;6580;42.680;23.324;2022-07-06T10:48:19;11.70;;;10.70;;
13026;SDS011;6580;42.680;23.324;2022-07-06T10:50:49;11.95;;;10.95;;
13026;SDS011;6580;42.680;23.324;2022-07-06T10:53:25;11.90;;;10.93;;
13026;SDS011;6580;42.680;23.324;2022-07-06T10:55:53;11.95;;;10.95;;
13026;SDS011;6580;42.680;23.324;2022-07-06T10:58:34;12.07;;;11.07;;
13026;SDS011;6580;42.680;23.324;2022-07-06T11:01:06;13.70;;;12.50;;
13026;SDS011;6580;42.680;23.324;2022-07-06T11:03:38;12.63;;;11.63;;
13026;SDS011;6580;42.680;23.324;2022-07-06T11:06:10;11.93;;;10.93;;
13026;SDS011;6580;42.680;23.324;2022-07-06T11:08:56;13.75;;;12.50;;
13026;SDS011;6580;42.680;23.324;2022-07-06T11:11:25;13.15;;;12.25;;
13026;SDS011;6580;42.680;23.324;2022-07-06T11:14:04;13.82;;;12.73;;
13026;SDS011;6580;42.680;23.324;2022-07-06T11:16:33;12.65;;;11.65;;
13026;SDS011;6580;42.680;23.324;2022-07-06T11:19:03;13.38;;;12.30;;
13026;SDS011;6580;42.680;23.324;2022-07-06T11:22:04;13.10;;;12.10;;
13026;SDS011;6580;42.680;23.324;2022-07-06T11:24:35;13.02;;;11.93;;
13026;SDS011;6580;42.680;23.324;2022-07-06T11:27:03;13.13;;;12.13;;
13026;SDS011;6580;42.680;23.324;2022-07-06T11:29:35;12.35;;;11.45;;
13026;SDS011;6580;42.680;23.324;2022-07-06T11:32:04;12.57;;;11.57;;
13026;SDS011;6580;42.680;23.324;2022-07-06T11:34:36;11.75;;;10.93;;
13026;SDS011;6580;42.680;23.324;2022-07-06T11:37:05;12.73;;;11.65;;
13026;SDS011;6580;42.680;23.324;2022-07-06T11:39:35;13.40;;;12.40;;
13026;SDS011;6580;42.680;23.324;2022-07-06T11:42:05;13.32;;;12.32;;
13026;SDS011;6580;42.680;23.324;2022-07-06T11:44:33;12.23;;;11.32;;
13026;SDS011;6580;42.680;23.324;2022-07-06T11:47:01;12.60;;;11.70;;
13026;SDS011;6580;42.680;23.324;2022-07-06T11:49:31;13.80;;;12.77;;
13026;SDS011;6580;42.680;23.324;2022-07-06T11:51:59;13.65;;;12.52;;
13026;SDS011;6580;42.680;23.324;2022-07-06T11:54:27;12.35;;;11.40;;
13026;SDS011;6580;42.680;23.324;2022-07-06T11:56:55;12.95;;;12.05;;
13026;SDS011;6580;42.680;23.324;2022-07-06T11:59:25;12.45;;;11.43;;
13026;SDS011;6580;42.680;23.324;2022-07-06T12:01:57;14.57;;;13.35;;
13026;SDS011;6580;42.680;23.324;2022-07-06T12:04:26;12.60;;;11.60;;
13026;SDS011;6580;42.680;23.324;2022-07-06T12:06:53;13.73;;;12.52;;
13026;SDS011;6580;42.680;23.324;2022-07-06T12:09:21;12.57;;;11.57;;
13026;SDS011;6580;42.680;23.324;2022-07-06T12:11:50;13.00;;;11.80;;
13026;SDS011;6580;42.680;23.324;2022-07-06T12:14:20;12.25;;;11.25;;
13026;SDS011;6580;42.680;23.324;2022-07-06T12:16:48;11.27;;;10.48;;
13026;SDS011;6580;42.680;23.324;2022-07-06T12:19:15;10.48;;;9.73;;
13026;SDS011;6580;42.680;23.324;2022-07-06T12:21:43;10.88;;;9.95;;
13026;SDS011;6580;42.680;23.324;2022-07-06T12:24:24;10.18;;;9.27;;
13026;SDS011;6580;42.680;23.324;2022-07-06T12:26:54;10.90;;;10.07;;
13026;SDS011;6580;42.680;23.324;2022-07-06T12:29:23;11.10;;;10.25;;
13026;SDS011;6580;42.680;23.324;2022-07-06T12:31:50;11.48;;;10.55;;
13026;SDS011;6580;42.680;23.324;2022-07-06T12:34:19;10.57;;;9.75;;
13026;SDS011;6580;42.680;23.324;2022-07-06T12:36:49;11.23;;;10.35;;
13026;SDS011;6580;42.680;23.324;2022-07-06T12:39:17;10.95;;;10.05;;
13026;SDS011;6580;42.680;23.324;2022-07-06T12:41:47;11.82;;;10.93;;
13026;SDS011;6580;42.680;23.324;2022-07-06T12:44:16;10.68;;;9.85;;
13026;SDS011;6580;42.680;23.324;2022-07-06T12:46:46;9.75;;;9.05;;
13026;SDS011;6580;42.680;23.324;2022-07-06T12:49:14;9.85;;;9.07;;
13026;SDS011;6580;42.680;23.324;2022-07-06T12:51:53;9.35;;;8.63;;
13026;SDS011;6580;42.680;23.324;2022-07-06T12:54:28;9.40;;;8.70;;
13026;SDS011;6580;42.680;23.324;2022-07-06T12:57:11;9.20;;;8.40;;
13026;SDS011;6580;42.680;23.324;2022-07-06T12:59:40;13.80;;;12.65;;
13026;SDS011;6580;42.680;23.324;2022-07-06T13:02:16;10.95;;;10.05;;
13026;SDS011;6580;42.680;23.324;2022-07-06T13:04:48;10.07;;;9.23;;
13026;SDS011;6580;42.680;23.324;2022-07-06T13:07:21;8.00;;;7.40;;
13026;SDS011;6580;42.680;23.324;2022-07-06T13:09:48;8.23;;;7.60;;
13026;SDS011;6580;42.680;23.324;2022-07-06T13:12:17;8.15;;;7.45;;
13026;SDS011;6580;42.680;23.324;2022-07-06T13:14:45;7.25;;;6.57;;
13026;SDS011;6580;42.680;23.324;2022-07-06T13:17:13;7.13;;;6.55;;
13026;SDS011;6580;42.680;23.324;2022-07-06T13:19:40;6.72;;;6.22;;
13026;SDS011;6580;42.680;23.324;2022-07-06T13:22:08;7.13;;;6.53;;
13026;SDS011;6580;42.680;23.324;2022-07-06T13:24:35;6.28;;;5.03;;
13026;SDS011;6580;42.680;23.324;2022-07-06T13:27:03;5.82;;;5.40;;
13026;SDS011;6580;42.680;23.324;2022-07-06T13:29:30;6.43;;;5.78;;
13026;SDS011;6580;42.680;23.324;2022-07-06T13:31:58;5.50;;;4.88;;
13026;SDS011;6580;42.680;23.324;2022-07-06T13:34:26;5.63;;;5.15;;
13026;SDS011;6580;42.680;23.324;2022-07-06T13:36:53;5.25;;;4.75;;
13026;SDS011;6580;42.680;23.324;2022-07-06T13:39:20;5.70;;;4.38;;
13026;SDS011;6580;42.680;23.324;2022-07-06T13:41:48;5.10;;;4.70;;
13026;SDS011;6580;42.680;23.324;2022-07-06T13:44:15;4.65;;;4.35;;
13026;SDS011;6580;42.680;23.324;2022-07-06T13:46:42;4.82;;;4.43;;
13026;SDS011;6580;42.680;23.324;2022-07-06T13:49:10;4.78;;;4.22;;
13026;SDS011;6580;42.680;23.324;2022-07-06T13:51:39;3.70;;;3.50;;
13026;SDS011;6580;42.680;23.324;2022-07-06T13:54:06;5.43;;;3.70;;
13026;SDS011;6580;42.680;23.324;2022-07-06T13:56:34;3.97;;;3.67;;
13026;SDS011;6580;42.680;23.324;2022-07-06T13:59:04;4.13;;;3.72;;
13026;SDS011;6580;42.680;23.324;2022-07-06T14:01:31;4.43;;;4.00;;
13026;SDS011;6580;42.680;23.324;2022-07-06T14:03:59;5.40;;;4.13;;
13026;SDS011;6580;42.680;23.324;2022-07-06T14:06:27;4.82;;;4.43;;
13026;SDS011;6580;42.680;23.324;2022-07-06T14:08:55;4.10;;;3.80;;
13026;SDS011;6580;42.680;23.324;2022-07-06T14:11:22;4.55;;;3.70;;
13026;SDS011;6580;42.680;23.324;2022-07-06T14:13:49;5.10;;;3.28;;
13026;SDS011;6580;42.680;23.324;2022-07-06T14:16:15;3.60;;;3.38;;
13026;SDS011;6580;42.680;23.324;2022-07-06T14:18:42;3.92;;;3.50;;
13026;SDS011;6580;42.680;23.324;2022-07-06T14:21:09;4.47;;;3.80;;
13026;SDS011;6580;42.680;23.324;2022-07-06T14:23:37;5.30;;;3.70;;
13026;SDS011;6580;42.680;23.324;2022-07-06T14:26:06;7.40;;;4.07;;
13026;SDS011;6580;42.680;23.324;2022-07-06T14:28:33;4.45;;;4.07;;
13026;SDS011;6580;42.680;23.324;2022-07-06T14:30:59;3.40;;;3.20;;
13026;SDS011;6580;42.680;23.324;2022-07-06T14:33:27;3.80;;;3.17;;
13026;SDS011;6580;42.680;23.324;2022-07-06T14:35:55;3.50;;;3.22;;